createdAt,value
2022-08-26T00:01:46.435Z,63.23
2022-08-26T00:04:13.930Z,63.30
2022-08-26T00:06:42.292Z,63.15
2022-08-26T00:09:10.149Z,63.06
2022-08-26T00:11:37.934Z,63.24
2022-08-26T00:14:05.399Z,63.29
2022-08-26T00:16:32.440Z,63.35
2022-08-26T00:18:59.839Z,63.46
2022-08-26T00:21:26.863Z,63.17
2022-08-26T00:23:54.226Z,63.44
2022-08-26T00:26:21.114Z,63.35
2022-08-26T00:28:48.017Z,63.52
2022-08-26T00:31:14.929Z,63.45
2022-08-26T00:33:42.131Z,63.60
2022-08-26T00:36:14.419Z,63.14
2022-08-26T00:38:48.370Z,63.49
2022-08-26T00:41:17.095Z,63.37
2022-08-26T00:43:47.539Z,63.44
2022-08-26T00:46:22.057Z,63.50
2022-08-26T00:48:52.556Z,63.54
2022-08-26T00:51:24.053Z,63.51
2022-08-26T00:53:56.041Z,63.36
2022-08-26T00:56:40.859Z,63.64
2022-08-26T00:59:12.082Z,63.53
2022-08-26T01:01:39.974Z,63.65
2022-08-26T01:04:07.214Z,63.56
2022-08-26T01:06:34.751Z,63.51
2022-08-26T01:09:01.916Z,63.23
2022-08-26T01:11:28.844Z,63.47
2022-08-26T01:13:59.404Z,63.49
2022-08-26T01:16:26.487Z,63.52
2022-08-26T01:18:59.898Z,63.56
2022-08-26T01:21:32.423Z,63.43
2022-08-26T01:24:00.352Z,63.53
2022-08-26T01:26:36.736Z,63.58
2022-08-26T01:29:06.127Z,63.43
2022-08-26T01:31:39.233Z,63.64
2022-08-26T01:34:26.139Z,63.58
2022-08-26T01:37:17.453Z,63.49
2022-08-26T01:39:49.358Z,63.60
2022-08-26T01:42:19.383Z,63.60
2022-08-26T01:44:51.896Z,63.60
2022-08-26T01:47:21.703Z,63.73
2022-08-26T01:49:51.862Z,63.49
2022-08-26T01:52:28.044Z,63.45
2022-08-26T01:54:56.687Z,63.63
2022-08-26T01:57:24.547Z,63.39
2022-08-26T01:59:54.675Z,63.55
2022-08-26T02:02:23.144Z,63.72
2022-08-26T02:04:57.996Z,63.74
2022-08-26T02:07:26.689Z,63.64
2022-08-26T02:09:54.694Z,63.60
2022-08-26T02:12:21.913Z,63.67
2022-08-26T02:14:53.961Z,63.58
2022-08-26T02:17:26.596Z,63.58
2022-08-26T02:19:53.903Z,63.93
2022-08-26T02:22:24.709Z,63.56
2022-08-26T02:25:21.986Z,63.60
2022-08-26T02:27:50.104Z,63.53
2022-08-26T02:30:23.474Z,63.63
2022-08-26T02:32:51.893Z,63.60
2022-08-26T02:35:20.672Z,63.51
2022-08-26T02:37:49.442Z,63.58
2022-08-26T02:40:19.103Z,63.54
2022-08-26T02:42:46.541Z,63.83
2022-08-26T02:45:13.675Z,63.61
2022-08-26T02:47:43.712Z,63.33
2022-08-26T02:50:11.251Z,63.70
2022-08-26T02:52:38.207Z,63.37
2022-08-26T02:55:05.847Z,63.38
2022-08-26T02:57:32.824Z,63.58
2022-08-26T03:00:01.176Z,63.59
2022-08-26T03:02:29.033Z,63.72
2022-08-26T03:04:57.867Z,63.61
2022-08-26T03:07:27.835Z,63.75
2022-08-26T03:09:54.770Z,63.74
2022-08-26T03:12:21.693Z,63.49
2022-08-26T03:14:48.660Z,63.56
2022-08-26T03:17:16.262Z,63.50
2022-08-26T03:19:43.166Z,63.50
2022-08-26T03:22:11.077Z,63.35
2022-08-26T03:24:38.207Z,63.09
2022-08-26T03:27:07.348Z,63.24
2022-08-26T03:29:52.813Z,63.29
2022-08-26T03:32:21.005Z,63.59
2022-08-26T03:34:48.136Z,63.77
2022-08-26T03:37:15.150Z,63.60
2022-08-26T03:39:42.153Z,63.59
2022-08-26T03:42:09.471Z,63.47
2022-08-26T03:44:37.828Z,63.49
2022-08-26T03:47:08.964Z,63.54
2022-08-26T03:49:36.245Z,63.48
2022-08-26T03:52:04.878Z,63.68
2022-08-26T03:54:33.262Z,63.62
2022-08-26T03:57:00.288Z,63.76
2022-08-26T03:59:27.572Z,63.70
2022-08-26T04:01:55.001Z,63.99
2022-08-26T04:04:22.854Z,63.92
2022-08-26T04:07:00.943Z,63.79
2022-08-26T04:09:28.503Z,63.93
2022-08-26T04:11:56.812Z,63.83
2022-08-26T04:14:25.431Z,63.77
2022-08-26T04:16:53.952Z,63.71
2022-08-26T04:19:22.896Z,63.71
2022-08-26T04:21:54.082Z,63.75
2022-08-26T04:24:23.779Z,64.06
2022-08-26T04:26:51.505Z,64.03
2022-08-26T04:29:25.683Z,63.87
2022-08-26T04:31:55.806Z,64.06
2022-08-26T04:34:25.005Z,63.83
2022-08-26T04:36:56.327Z,63.92
2022-08-26T04:39:23.137Z,62.38
2022-08-26T04:41:51.735Z,62.83
2022-08-26T04:44:21.691Z,63.45
2022-08-26T04:46:48.541Z,63.16
2022-08-26T04:49:15.921Z,63.61
2022-08-26T04:51:44.012Z,63.81
2022-08-26T04:54:11.122Z,63.44
2022-08-26T04:56:40.756Z,63.65
2022-08-26T04:59:17.110Z,63.82
2022-08-26T05:01:48.877Z,64.14
2022-08-26T05:04:18.835Z,64.45
2022-08-26T05:06:47.318Z,64.38
2022-08-26T05:09:15.438Z,64.50
2022-08-26T05:11:42.992Z,64.66
2022-08-26T05:14:09.961Z,64.57
2022-08-26T05:16:40.438Z,64.29
2022-08-26T05:19:08.521Z,64.23
2022-08-26T05:21:35.851Z,64.52
2022-08-26T05:24:03.092Z,64.45
2022-08-26T05:26:31.703Z,64.66
2022-08-26T05:28:58.805Z,64.61
2022-08-26T05:31:31.814Z,65.00
2022-08-26T05:33:59.609Z,64.78
2022-08-26T05:36:32.326Z,64.77
2022-08-26T05:38:59.534Z,64.84
2022-08-26T05:41:34.425Z,64.55
2022-08-26T05:44:06.776Z,64.57
2022-08-26T05:46:34.899Z,64.62
2022-08-26T05:49:03.116Z,64.69
2022-08-26T05:51:30.663Z,64.63
2022-08-26T05:53:58.902Z,64.71
2022-08-26T05:56:27.955Z,64.56
2022-08-26T05:58:56.518Z,64.64
2022-08-26T06:01:27.990Z,64.58
2022-08-26T06:04:01.347Z,64.81
2022-08-26T06:06:34.323Z,64.64
2022-08-26T06:09:04.022Z,64.71
2022-08-26T06:11:32.745Z,64.77
2022-08-26T06:14:03.949Z,64.61
2022-08-26T06:16:33.771Z,64.60
2022-08-26T06:19:03.189Z,64.48
2022-08-26T06:21:33.317Z,64.61
2022-08-26T06:24:22.021Z,64.69
2022-08-26T06:26:56.740Z,64.53
2022-08-26T06:29:26.316Z,64.62
2022-08-26T06:31:54.723Z,64.75
2022-08-26T06:34:26.562Z,64.57
2022-08-26T06:36:58.816Z,64.42
2022-08-26T06:39:26.023Z,64.97
2022-08-26T06:41:53.303Z,64.63
2022-08-26T06:44:20.947Z,64.74
2022-08-26T06:46:50.471Z,65.03
2022-08-26T06:49:26.702Z,64.82
2022-08-26T06:51:58.686Z,64.92
2022-08-26T06:54:27.058Z,64.96
2022-08-26T06:56:54.235Z,64.82
2022-08-26T06:59:22.110Z,64.90
2022-08-26T07:01:49.794Z,64.95
2022-08-26T07:04:20.227Z,64.97
2022-08-26T07:06:52.775Z,65.27
2022-08-26T07:09:22.675Z,65.06
2022-08-26T07:11:49.917Z,64.96
2022-08-26T07:14:19.417Z,65.12
2022-08-26T07:16:49.896Z,64.47
2022-08-26T07:19:30.033Z,64.94
2022-08-26T07:22:03.271Z,65.08
2022-08-26T07:24:31.620Z,65.05
2022-08-26T07:27:07.135Z,65.14
2022-08-26T07:29:36.483Z,65.16
2022-08-26T07:32:05.035Z,65.17
2022-08-26T07:34:33.176Z,65.06
2022-08-26T07:37:01.105Z,65.18
2022-08-26T07:39:31.627Z,65.19
2022-08-26T07:42:00.111Z,65.06
2022-08-26T07:44:27.623Z,64.58
2022-08-26T07:46:54.775Z,65.10
2022-08-26T07:49:27.114Z,65.22
2022-08-26T07:51:55.298Z,65.28
2022-08-26T07:54:27.080Z,65.16
2022-08-26T07:56:55.902Z,65.56
2022-08-26T07:59:23.678Z,65.47
2022-08-26T08:01:51.172Z,65.40
2022-08-26T08:04:26.090Z,65.48
2022-08-26T08:06:54.780Z,65.35
2022-08-26T08:09:24.248Z,65.33
2022-08-26T08:11:53.025Z,65.38
2022-08-26T08:14:22.096Z,65.49
2022-08-26T08:16:54.680Z,65.31
2022-08-26T08:19:23.910Z,65.34
2022-08-26T08:21:55.660Z,65.40
2022-08-26T08:24:22.800Z,65.16
2022-08-26T08:26:50.907Z,65.57
2022-08-26T08:29:18.284Z,65.43
2022-08-26T08:31:58.488Z,65.64
2022-08-26T08:34:29.808Z,65.46
2022-08-26T08:37:01.967Z,65.55
2022-08-26T08:39:33.275Z,65.45
2022-08-26T08:42:07.634Z,65.71
2022-08-26T08:44:43.065Z,65.92
2022-08-26T08:47:30.531Z,65.77
2022-08-26T08:50:27.758Z,65.62
2022-08-26T08:53:23.749Z,65.80
2022-08-26T08:56:13.321Z,65.44
2022-08-26T08:59:06.194Z,65.94
2022-08-26T09:02:21.154Z,65.73
2022-08-26T09:05:16.284Z,65.46
2022-08-26T09:08:14.226Z,65.75
2022-08-26T09:10:49.244Z,65.68
2022-08-26T09:13:24.881Z,65.68
2022-08-26T09:15:59.793Z,65.78
2022-08-26T09:18:45.977Z,65.51
2022-08-26T09:21:17.867Z,65.75
2022-08-26T09:23:49.725Z,65.56
2022-08-26T09:26:18.772Z,65.63
2022-08-26T09:28:57.063Z,65.59
2022-08-26T09:31:33.820Z,65.63
2022-08-26T09:34:25.157Z,65.63
2022-08-26T09:36:55.750Z,65.59
2022-08-26T09:39:35.096Z,66.17
2022-08-26T09:42:07.712Z,66.21
2022-08-26T09:44:57.319Z,66.43
2022-08-26T09:47:39.767Z,66.29
2022-08-26T09:50:28.948Z,66.66
2022-08-26T09:53:16.299Z,66.50
2022-08-26T09:55:49.549Z,66.69
2022-08-26T09:58:39.511Z,66.64
2022-08-26T10:01:30.149Z,66.43
2022-08-26T10:04:20.641Z,66.62
2022-08-26T10:07:08.654Z,66.87
2022-08-26T10:09:45.977Z,66.70
2022-08-26T10:12:23.709Z,66.58
2022-08-26T10:14:59.537Z,66.31
2022-08-26T10:17:40.226Z,66.24
2022-08-26T10:20:24.964Z,66.14
2022-08-26T10:23:01.755Z,66.19
2022-08-26T10:25:59.013Z,65.99
2022-08-26T10:28:27.215Z,66.17
2022-08-26T10:31:07.793Z,65.73
2022-08-26T10:33:34.904Z,66.07
2022-08-26T10:36:30.908Z,65.81
2022-08-26T10:39:03.974Z,66.15
2022-08-26T10:41:35.484Z,66.09
2022-08-26T10:44:05.724Z,65.88
2022-08-26T10:46:49.982Z,66.11
2022-08-26T10:49:19.662Z,65.86
2022-08-26T10:52:00.401Z,65.98
2022-08-26T10:54:28.285Z,65.72
2022-08-26T10:57:14.387Z,66.06
2022-08-26T11:00:31.929Z,66.56
2022-08-26T11:03:31.972Z,66.39
2022-08-26T11:06:29.088Z,65.95
2022-08-26T11:08:57.547Z,66.14
2022-08-26T11:11:48.576Z,66.28
2022-08-26T11:14:28.477Z,66.15
2022-08-26T11:16:59.136Z,66.51
2022-08-26T11:20:01.558Z,66.02
2022-08-26T11:22:29.189Z,66.65
2022-08-26T11:24:56.100Z,66.24
2022-08-26T11:27:26.314Z,66.52
2022-08-26T11:30:04.809Z,66.36
2022-08-26T11:32:34.882Z,66.44
2022-08-26T11:35:06.641Z,66.64
2022-08-26T11:37:57.743Z,66.52
2022-08-26T11:40:35.697Z,66.33
2022-08-26T11:43:09.306Z,66.42
2022-08-26T11:45:47.085Z,66.55
2022-08-26T11:48:18.052Z,66.34
2022-08-26T11:50:59.978Z,66.53
2022-08-26T11:53:27.894Z,66.14
2022-08-26T11:55:59.764Z,66.50
2022-08-26T11:58:28.664Z,66.66
2022-08-26T12:00:55.722Z,66.27
2022-08-26T12:03:31.887Z,65.95
2022-08-26T12:06:00.195Z,66.13
2022-08-26T12:08:34.620Z,65.45
2022-08-26T12:11:10.556Z,64.99
2022-08-26T12:13:40.626Z,65.54
2022-08-26T12:16:13.192Z,65.34
2022-08-26T12:18:42.370Z,65.17
2022-08-26T12:21:24.552Z,65.11
2022-08-26T12:24:00.678Z,65.32
2022-08-26T12:26:37.698Z,65.82
2022-08-26T12:29:27.336Z,65.74
2022-08-26T12:32:18.698Z,65.90
2022-08-26T12:34:48.379Z,66.02
2022-08-26T12:37:18.859Z,66.44
2022-08-26T12:39:49.534Z,66.33
2022-08-26T12:42:19.922Z,66.00
2022-08-26T12:45:00.562Z,66.05
2022-08-26T12:47:42.956Z,66.24
2022-08-26T12:50:19.598Z,66.04
2022-08-26T12:53:13.266Z,65.73
2022-08-26T12:55:50.788Z,65.84
2022-08-26T12:58:32.058Z,65.86
2022-08-26T13:01:05.025Z,65.83
2022-08-26T13:03:35.033Z,65.96
2022-08-26T13:06:23.718Z,65.90
2022-08-26T13:08:56.691Z,65.90
2022-08-26T13:11:25.320Z,65.81
2022-08-26T13:14:21.049Z,65.75
2022-08-26T13:16:51.995Z,65.87
2022-08-26T13:19:25.950Z,65.88
2022-08-26T13:21:54.859Z,65.80
2022-08-26T13:24:25.444Z,65.95
2022-08-26T13:26:52.714Z,65.89
2022-08-26T13:29:20.089Z,65.75
2022-08-26T13:31:48.429Z,65.91
2022-08-26T13:34:19.550Z,65.77
2022-08-26T13:36:47.253Z,65.75
2022-08-26T13:39:14.707Z,65.78
2022-08-26T13:41:42.721Z,65.64
2022-08-26T13:44:10.972Z,65.64
2022-08-26T13:46:38.969Z,65.77
2022-08-26T13:49:06.683Z,65.90
2022-08-26T13:51:34.477Z,65.72
2022-08-26T13:54:01.821Z,65.66
2022-08-26T13:56:32.701Z,65.85
2022-08-26T13:59:02.017Z,65.70
2022-08-26T14:01:34.036Z,65.62
2022-08-26T14:04:03.770Z,65.79
2022-08-26T14:06:31.939Z,65.53
2022-08-26T14:09:02.517Z,65.55
2022-08-26T14:11:54.462Z,65.67
2022-08-26T14:14:25.571Z,65.62
2022-08-26T14:16:59.425Z,65.50
2022-08-26T14:19:31.926Z,65.51
2022-08-26T14:22:03.109Z,65.51
2022-08-26T14:24:32.933Z,65.32
2022-08-26T14:27:02.956Z,65.52
2022-08-26T14:29:32.082Z,65.54
2022-08-26T14:32:08.916Z,65.33
2022-08-26T14:34:38.376Z,65.36
2022-08-26T14:37:08.643Z,65.35
2022-08-26T14:39:39.703Z,65.34
2022-08-26T14:42:10.858Z,65.42
2022-08-26T14:44:43.963Z,65.52
2022-08-26T14:47:14.193Z,65.39
2022-08-26T14:49:45.035Z,65.73
2022-08-26T14:52:17.569Z,65.44
2022-08-26T14:54:46.873Z,65.63
2022-08-26T14:57:17.350Z,65.58
2022-08-26T14:59:50.274Z,65.54
2022-08-26T15:02:30.877Z,65.38
2022-08-26T15:05:02.864Z,65.83
2022-08-26T15:07:33.265Z,65.91
2022-08-26T15:10:01.463Z,66.03
2022-08-26T15:12:28.728Z,66.07
2022-08-26T15:14:56.269Z,66.39
2022-08-26T15:17:25.502Z,66.84
2022-08-26T15:19:58.119Z,66.85
2022-08-26T15:22:29.795Z,67.33
2022-08-26T15:24:58.972Z,67.79
2022-08-26T15:27:26.391Z,67.72
2022-08-26T15:29:54.531Z,68.03
2022-08-26T15:32:23.177Z,68.01
2022-08-26T15:34:51.507Z,67.87
2022-08-26T15:37:19.042Z,67.52
2022-08-26T15:39:47.490Z,67.61
2022-08-26T15:42:17.199Z,67.73
2022-08-26T15:44:46.120Z,67.89
2022-08-26T15:47:13.986Z,67.71
2022-08-26T15:49:45.186Z,67.36
2022-08-26T15:52:12.859Z,67.18
2022-08-26T15:54:41.005Z,67.35
2022-08-26T15:57:11.506Z,67.71
2022-08-26T15:59:40.441Z,67.58
2022-08-26T16:02:10.560Z,67.33
2022-08-26T16:04:39.963Z,67.53
2022-08-26T16:07:07.672Z,67.24
2022-08-26T16:09:34.976Z,67.24
2022-08-26T16:12:02.988Z,67.21
2022-08-26T16:14:31.701Z,67.40
2022-08-26T16:16:59.337Z,67.11
2022-08-26T16:19:26.875Z,67.40
2022-08-26T16:21:54.170Z,67.05
2022-08-26T16:24:25.986Z,66.92
2022-08-26T16:26:57.870Z,67.20
2022-08-26T16:29:25.354Z,67.21
2022-08-26T16:31:54.307Z,67.18
2022-08-26T16:34:22.442Z,66.81
2022-08-26T16:36:49.795Z,66.78
2022-08-26T16:39:17.461Z,66.75
2022-08-26T16:41:45.140Z,66.54
2022-08-26T16:44:13.144Z,66.69
2022-08-26T16:46:41.775Z,66.61
2022-08-26T16:49:09.133Z,66.72
2022-08-26T16:51:37.838Z,66.77
2022-08-26T16:54:07.707Z,67.30
2022-08-26T16:56:36.981Z,67.38
2022-08-26T16:59:07.189Z,67.28
2022-08-26T17:01:35.107Z,67.09
2022-08-26T17:04:03.147Z,67.07
2022-08-26T17:06:31.966Z,66.97
2022-08-26T17:08:59.947Z,66.89
2022-08-26T17:11:27.390Z,66.81
2022-08-26T17:13:54.570Z,66.91
2022-08-26T17:16:26.397Z,66.78
2022-08-26T17:18:58.587Z,66.90
2022-08-26T17:21:27.706Z,66.96
2022-08-26T17:23:55.345Z,67.13
2022-08-26T17:26:22.710Z,66.99
2022-08-26T17:28:51.288Z,66.82
2022-08-26T17:31:20.311Z,66.76
2022-08-26T17:33:54.016Z,66.65
2022-08-26T17:36:21.836Z,66.62
2022-08-26T17:38:49.458Z,66.78
2022-08-26T17:41:19.699Z,67.02
2022-08-26T17:43:46.795Z,66.87
2022-08-26T17:46:13.880Z,67.21
2022-08-26T17:48:41.902Z,66.81
2022-08-26T17:51:15.432Z,66.67
2022-08-26T17:53:43.595Z,66.71
2022-08-26T17:56:13.582Z,66.83
2022-08-26T17:58:48.216Z,66.83
2022-08-26T18:01:18.946Z,66.43
2022-08-26T18:03:46.619Z,66.47
2022-08-26T18:06:14.497Z,66.57
2022-08-26T18:08:42.731Z,66.61
2022-08-26T18:11:17.085Z,67.07
2022-08-26T18:13:47.418Z,66.82
2022-08-26T18:16:17.248Z,66.55
2022-08-26T18:18:44.771Z,66.60
2022-08-26T18:21:14.688Z,66.45
2022-08-26T18:23:42.505Z,66.24
2022-08-26T18:26:09.640Z,66.21
2022-08-26T18:28:39.495Z,66.48
2022-08-26T18:31:09.338Z,66.43
2022-08-26T18:33:36.456Z,66.61
2022-08-26T18:36:03.890Z,66.89
2022-08-26T18:38:31.050Z,66.43
2022-08-26T18:40:58.124Z,66.71
2022-08-26T18:43:25.587Z,66.73
2022-08-26T18:46:03.952Z,66.73
2022-08-26T18:48:31.065Z,66.84
2022-08-26T18:51:00.706Z,66.63
2022-08-26T18:53:29.294Z,66.40
2022-08-26T18:55:57.195Z,66.67
2022-08-26T18:58:24.947Z,66.96
2022-08-26T19:00:53.163Z,67.28
2022-08-26T19:03:20.926Z,67.40
2022-08-26T19:05:52.056Z,66.87
2022-08-26T19:08:19.361Z,66.96
2022-08-26T19:10:47.000Z,66.98
2022-08-26T19:13:17.030Z,66.96
2022-08-26T19:15:49.228Z,66.97
2022-08-26T19:18:16.976Z,67.01
2022-08-26T19:20:46.897Z,67.17
2022-08-26T19:23:33.599Z,67.04
2022-08-26T19:26:04.614Z,67.26
2022-08-26T19:28:33.058Z,67.34
2022-08-26T19:31:01.398Z,67.52
2022-08-26T19:33:32.115Z,67.39
2022-08-26T19:36:01.265Z,67.46
2022-08-26T19:38:31.453Z,67.20
2022-08-26T19:41:01.540Z,67.41
2022-08-26T19:43:32.194Z,68.18
2022-08-26T19:46:00.009Z,68.82
2022-08-26T19:48:27.109Z,69.34
2022-08-26T19:50:54.415Z,70.10
2022-08-26T19:53:28.723Z,70.60
2022-08-26T19:56:04.754Z,70.66
2022-08-26T19:58:33.792Z,69.39
2022-08-26T20:01:01.460Z,69.56
2022-08-26T20:03:29.690Z,68.99
2022-08-26T20:06:00.019Z,69.00
2022-08-26T20:08:29.770Z,68.44
2022-08-26T20:11:00.803Z,68.62
2022-08-26T20:13:30.939Z,68.10
2022-08-26T20:15:59.131Z,67.50
2022-08-26T20:18:45.156Z,67.22
2022-08-26T20:21:30.182Z,67.25
2022-08-26T20:24:05.628Z,67.20
2022-08-26T20:26:39.031Z,66.87
2022-08-26T20:29:08.799Z,66.77
2022-08-26T20:31:37.032Z,66.94
2022-08-26T20:34:12.524Z,66.43
2022-08-26T20:36:43.547Z,66.42
2022-08-26T20:39:12.405Z,66.48
2022-08-26T20:41:42.723Z,66.49
2022-08-26T20:44:12.958Z,66.16
2022-08-26T20:46:45.250Z,66.40
2022-08-26T20:49:13.974Z,66.33
2022-08-26T20:51:49.190Z,66.32
2022-08-26T20:54:17.155Z,66.06
2022-08-26T20:56:44.715Z,66.19
2022-08-26T20:59:12.979Z,66.33
2022-08-26T21:01:42.408Z,65.89
2022-08-26T21:04:24.917Z,66.15
2022-08-26T21:06:53.259Z,66.07
2022-08-26T21:09:25.685Z,66.12
2022-08-26T21:11:53.739Z,65.96
2022-08-26T21:14:25.709Z,66.27
2022-08-26T21:16:54.113Z,66.02
2022-08-26T21:19:22.198Z,66.14
2022-08-26T21:21:49.832Z,66.23
2022-08-26T21:24:17.681Z,65.94
2022-08-26T21:26:45.211Z,66.18
2022-08-26T21:29:13.934Z,66.16
2022-08-26T21:31:46.215Z,66.08
2022-08-26T21:34:16.563Z,66.06
2022-08-26T21:36:44.205Z,66.19
2022-08-26T21:39:12.180Z,66.25
2022-08-26T21:41:41.020Z,66.12
2022-08-26T21:44:09.109Z,66.04
2022-08-26T21:46:37.628Z,66.14
2022-08-26T21:49:07.857Z,66.18
2022-08-26T21:51:44.073Z,66.19
2022-08-26T21:54:13.049Z,66.10
2022-08-26T21:56:44.941Z,66.14
2022-08-26T21:59:13.313Z,65.93
2022-08-26T22:01:40.418Z,66.15
2022-08-26T22:04:09.645Z,66.21
2022-08-26T22:06:48.131Z,66.42
2022-08-26T22:09:18.187Z,66.32
2022-08-26T22:11:46.907Z,66.23
2022-08-26T22:14:14.703Z,66.19
2022-08-26T22:16:41.739Z,66.41
2022-08-26T22:19:17.708Z,66.36
2022-08-26T22:21:45.604Z,66.24
2022-08-26T22:24:12.935Z,66.26
2022-08-26T22:26:40.286Z,66.30
2022-08-26T22:29:07.992Z,66.30
2022-08-26T22:31:38.339Z,66.43
2022-08-26T22:34:11.395Z,66.34
2022-08-26T22:36:43.697Z,66.50
2022-08-26T22:39:12.950Z,66.36
2022-08-26T22:41:40.496Z,66.30
2022-08-26T22:44:08.081Z,66.38
2022-08-26T22:46:37.135Z,66.42
2022-08-26T22:49:05.985Z,66.63
2022-08-26T22:51:33.671Z,66.34
2022-08-26T22:54:01.064Z,66.61
2022-08-26T22:56:28.089Z,66.43
2022-08-26T22:58:55.429Z,66.71
2022-08-26T23:01:22.549Z,66.67
2022-08-26T23:03:49.776Z,66.55
2022-08-26T23:06:17.228Z,66.78
2022-08-26T23:08:46.674Z,66.81
2022-08-26T23:11:15.314Z,66.50
2022-08-26T23:13:42.900Z,66.89
2022-08-26T23:16:12.546Z,66.60
2022-08-26T23:18:40.958Z,66.63
2022-08-26T23:21:08.242Z,66.60
2022-08-26T23:23:35.968Z,66.67
2022-08-26T23:26:06.098Z,66.71
2022-08-26T23:28:33.874Z,66.47
2022-08-26T23:31:00.939Z,66.82
2022-08-26T23:33:48.416Z,66.87
2022-08-26T23:36:18.053Z,66.76
2022-08-26T23:38:52.422Z,66.87
2022-08-26T23:41:22.137Z,66.67
2022-08-26T23:43:49.821Z,66.71
2022-08-26T23:46:16.812Z,66.73
2022-08-26T23:48:44.281Z,66.97
2022-08-26T23:51:32.163Z,66.67
2022-08-26T23:54:00.002Z,66.85
2022-08-26T23:56:27.121Z,66.66
2022-08-26T23:58:54.962Z,66.79
